sensor_id;sensor_type;location;lat;lon;timestamp;P1;durP1;ratioP1;P2;durP2;ratioP2
54883;SDS011;40776;52.880;6.016;2022-08-11T00:01:51;8.10;;;6.30;;
54883;SDS011;40776;52.880;6.016;2022-08-11T00:04:18;12.60;;;6.72;;
54883;SDS011;40776;52.880;6.016;2022-08-11T00:06:45;8.50;;;6.65;;
54883;SDS011;40776;52.880;6.016;2022-08-11T00:09:16;11.57;;;7.07;;
54883;SDS011;40776;52.880;6.016;2022-08-11T00:11:44;16.25;;;7.35;;
54883;SDS011;40776;52.880;6.016;2022-08-11T00:14:14;12.75;;;6.88;;
54883;SDS011;40776;52.880;6.016;2022-08-11T00:16:41;7.45;;;6.20;;
54883;SDS011;40776;52.880;6.016;2022-08-11T00:19:07;8.93;;;6.22;;
54883;SDS011;40776;52.880;6.016;2022-08-11T00:21:39;9.48;;;7.10;;
54883;SDS011;40776;52.880;6.016;2022-08-11T00:24:06;9.70;;;6.55;;
54883;SDS011;40776;52.880;6.016;2022-08-11T00:26:33;7.85;;;6.53;;
54883;SDS011;40776;52.880;6.016;2022-08-11T00:29:09;10.15;;;6.80;;
54883;SDS011;40776;52.880;6.016;2022-08-11T00:31:36;8.02;;;6.90;;
54883;SDS011;40776;52.880;6.016;2022-08-11T00:34:08;15.07;;;7.30;;
54883;SDS011;40776;52.880;6.016;2022-08-11T00:36:41;10.20;;;6.75;;
54883;SDS011;40776;52.880;6.016;2022-08-11T00:39:08;14.32;;;7.32;;
54883;SDS011;40776;52.880;6.016;2022-08-11T00:41:38;10.88;;;6.97;;
54883;SDS011;40776;52.880;6.016;2022-08-11T00:44:09;8.50;;;6.57;;
54883;SDS011;40776;52.880;6.016;2022-08-11T00:49:17;8.27;;;6.82;;
54883;SDS011;40776;52.880;6.016;2022-08-11T00:51:58;9.63;;;6.45;;
54883;SDS011;40776;52.880;6.016;2022-08-11T01:00:14;10.88;;;7.20;;
54883;SDS011;40776;52.880;6.016;2022-08-11T01:21:45;9.80;;;6.78;;
54883;SDS011;40776;52.880;6.016;2022-08-11T01:41:41;11.25;;;7.50;;
54883;SDS011;40776;52.880;6.016;2022-08-11T01:45:15;10.10;;;7.90;;
54883;SDS011;40776;52.880;6.016;2022-08-11T01:50:24;11.25;;;7.63;;
54883;SDS011;40776;52.880;6.016;2022-08-11T01:52:58;8.55;;;7.38;;
54883;SDS011;40776;52.880;6.016;2022-08-11T01:55:31;9.90;;;7.50;;
54883;SDS011;40776;52.880;6.016;2022-08-11T02:00:29;11.85;;;7.70;;
54883;SDS011;40776;52.880;6.016;2022-08-11T02:03:15;11.52;;;7.40;;
54883;SDS011;40776;52.880;6.016;2022-08-11T02:05:46;11.13;;;7.57;;
54883;SDS011;40776;52.880;6.016;2022-08-11T02:10:44;9.43;;;7.95;;
54883;SDS011;40776;52.880;6.016;2022-08-11T02:16:02;13.82;;;8.88;;
54883;SDS011;40776;52.880;6.016;2022-08-11T02:18:33;10.65;;;8.57;;
54883;SDS011;40776;52.880;6.016;2022-08-11T02:21:23;13.40;;;8.57;;
54883;SDS011;40776;52.880;6.016;2022-08-11T02:26:43;13.35;;;9.00;;
54883;SDS011;40776;52.880;6.016;2022-08-11T02:31:40;10.45;;;8.25;;
54883;SDS011;40776;52.880;6.016;2022-08-11T02:34:33;11.85;;;8.18;;
54883;SDS011;40776;52.880;6.016;2022-08-11T02:39:53;13.95;;;8.25;;
54883;SDS011;40776;52.880;6.016;2022-08-11T02:54:00;13.43;;;9.23;;
54883;SDS011;40776;52.880;6.016;2022-08-11T02:59:16;12.15;;;9.98;;
54883;SDS011;40776;52.880;6.016;2022-08-11T03:02:09;13.77;;;9.93;;
54883;SDS011;40776;52.880;6.016;2022-08-11T03:04:40;15.40;;;10.27;;
54883;SDS011;40776;52.880;6.016;2022-08-11T03:07:30;12.48;;;9.15;;
54883;SDS011;40776;52.880;6.016;2022-08-11T03:12:28;12.88;;;9.65;;
54883;SDS011;40776;52.880;6.016;2022-08-11T03:15:18;15.50;;;10.80;;
54883;SDS011;40776;52.880;6.016;2022-08-11T03:25:46;13.98;;;9.43;;
54883;SDS011;40776;52.880;6.016;2022-08-11T03:28:23;15.85;;;9.95;;
54883;SDS011;40776;52.880;6.016;2022-08-11T03:31:05;15.68;;;10.50;;
54883;SDS011;40776;52.880;6.016;2022-08-11T03:36:19;13.45;;;9.80;;
54883;SDS011;40776;52.880;6.016;2022-08-11T03:38:55;12.80;;;8.95;;
54883;SDS011;40776;52.880;6.016;2022-08-11T03:44:16;13.85;;;11.07;;
54883;SDS011;40776;52.880;6.016;2022-08-11T03:49:19;12.38;;;9.75;;
54883;SDS011;40776;52.880;6.016;2022-08-11T04:00:22;15.15;;;11.25;;
54883;SDS011;40776;52.880;6.016;2022-08-11T04:11:46;17.23;;;11.13;;
54883;SDS011;40776;52.880;6.016;2022-08-11T04:30:10;17.73;;;13.38;;
54883;SDS011;40776;52.880;6.016;2022-08-11T04:38:13;17.10;;;13.60;;
54883;SDS011;40776;52.880;6.016;2022-08-11T04:44:01;22.02;;;15.23;;
54883;SDS011;40776;52.880;6.016;2022-08-11T05:01:09;19.92;;;12.45;;
54883;SDS011;40776;52.880;6.016;2022-08-11T05:12:33;22.00;;;14.05;;
54883;SDS011;40776;52.880;6.016;2022-08-11T05:15:01;19.95;;;14.85;;
54883;SDS011;40776;52.880;6.016;2022-08-11T05:23:21;17.92;;;14.35;;
54883;SDS011;40776;52.880;6.016;2022-08-11T05:26:09;21.20;;;15.50;;
54883;SDS011;40776;52.880;6.016;2022-08-11T05:29:01;19.08;;;14.23;;
54883;SDS011;40776;52.880;6.016;2022-08-11T05:31:56;21.30;;;14.48;;
54883;SDS011;40776;52.880;6.016;2022-08-11T05:34:43;17.50;;;13.50;;
54883;SDS011;40776;52.880;6.016;2022-08-11T05:37:24;17.88;;;13.85;;
54883;SDS011;40776;52.880;6.016;2022-08-11T05:42:47;17.48;;;12.57;;
54883;SDS011;40776;52.880;6.016;2022-08-11T05:45:33;16.25;;;12.77;;
54883;SDS011;40776;52.880;6.016;2022-08-11T05:48:18;17.98;;;13.27;;
54883;SDS011;40776;52.880;6.016;2022-08-11T05:51:02;20.75;;;13.15;;
54883;SDS011;40776;52.880;6.016;2022-08-11T05:53:57;16.02;;;12.65;;
54883;SDS011;40776;52.880;6.016;2022-08-11T05:56:43;15.77;;;12.13;;
54883;SDS011;40776;52.880;6.016;2022-08-11T05:59:13;14.93;;;12.40;;
54883;SDS011;40776;52.880;6.016;2022-08-11T06:01:42;18.67;;;11.73;;
54883;SDS011;40776;52.880;6.016;2022-08-11T06:04:21;16.13;;;11.52;;
54883;SDS011;40776;52.880;6.016;2022-08-11T06:09:24;14.73;;;12.20;;
54883;SDS011;40776;52.880;6.016;2022-08-11T06:11:50;15.73;;;10.05;;
54883;SDS011;40776;52.880;6.016;2022-08-11T06:14:17;16.60;;;11.05;;
54883;SDS011;40776;52.880;6.016;2022-08-11T06:16:46;14.95;;;10.10;;
54883;SDS011;40776;52.880;6.016;2022-08-11T06:19:12;17.30;;;10.13;;
54883;SDS011;40776;52.880;6.016;2022-08-11T06:21:44;14.05;;;9.80;;
54883;SDS011;40776;52.880;6.016;2022-08-11T06:24:12;12.43;;;9.65;;
54883;SDS011;40776;52.880;6.016;2022-08-11T06:26:46;14.20;;;10.35;;
54883;SDS011;40776;52.880;6.016;2022-08-11T06:29:12;12.45;;;8.98;;
54883;SDS011;40776;52.880;6.016;2022-08-11T06:31:49;12.52;;;8.65;;
54883;SDS011;40776;52.880;6.016;2022-08-11T06:34:24;12.57;;;8.82;;
54883;SDS011;40776;52.880;6.016;2022-08-11T06:36:54;11.57;;;8.02;;
54883;SDS011;40776;52.880;6.016;2022-08-11T06:39:35;12.50;;;7.93;;
54883;SDS011;40776;52.880;6.016;2022-08-11T06:42:08;11.13;;;7.22;;
54883;SDS011;40776;52.880;6.016;2022-08-11T06:47:09;10.85;;;7.63;;
54883;SDS011;40776;52.880;6.016;2022-08-11T06:49:36;12.35;;;8.00;;
54883;SDS011;40776;52.880;6.016;2022-08-11T06:52:32;8.77;;;6.90;;
54883;SDS011;40776;52.880;6.016;2022-08-11T06:57:34;13.15;;;7.07;;
54883;SDS011;40776;52.880;6.016;2022-08-11T07:00:22;8.52;;;5.97;;
54883;SDS011;40776;52.880;6.016;2022-08-11T07:14:34;9.45;;;5.72;;
54883;SDS011;40776;52.880;6.016;2022-08-11T07:19:52;6.70;;;4.75;;
54883;SDS011;40776;52.880;6.016;2022-08-11T07:22:42;7.50;;;4.78;;
54883;SDS011;40776;52.880;6.016;2022-08-11T07:25:35;6.80;;;3.83;;
54883;SDS011;40776;52.880;6.016;2022-08-11T07:28:23;7.88;;;5.30;;
54883;SDS011;40776;52.880;6.016;2022-08-11T07:31:11;8.23;;;4.25;;
54883;SDS011;40776;52.880;6.016;2022-08-11T07:33:51;8.43;;;4.60;;
54883;SDS011;40776;52.880;6.016;2022-08-11T07:36:23;6.63;;;4.80;;
54883;SDS011;40776;52.880;6.016;2022-08-11T07:38:52;6.97;;;4.35;;
54883;SDS011;40776;52.880;6.016;2022-08-11T07:41:21;7.85;;;4.03;;
54883;SDS011;40776;52.880;6.016;2022-08-11T07:43:49;9.32;;;4.60;;
54883;SDS011;40776;52.880;6.016;2022-08-11T07:46:19;7.68;;;3.67;;
54883;SDS011;40776;52.880;6.016;2022-08-11T07:49:05;7.13;;;3.70;;
54883;SDS011;40776;52.880;6.016;2022-08-11T07:51:52;8.60;;;3.90;;
54883;SDS011;40776;52.880;6.016;2022-08-11T07:54:37;5.30;;;3.38;;
54883;SDS011;40776;52.880;6.016;2022-08-11T07:57:07;6.15;;;3.42;;
54883;SDS011;40776;52.880;6.016;2022-08-11T07:59:52;4.45;;;2.67;;
54883;SDS011;40776;52.880;6.016;2022-08-11T08:02:39;3.85;;;2.63;;
54883;SDS011;40776;52.880;6.016;2022-08-11T08:05:25;5.07;;;2.40;;
54883;SDS011;40776;52.880;6.016;2022-08-11T08:08:12;6.15;;;2.60;;
54883;SDS011;40776;52.880;6.016;2022-08-11T08:10:58;3.90;;;2.20;;
54883;SDS011;40776;52.880;6.016;2022-08-11T08:13:44;6.03;;;2.53;;
54883;SDS011;40776;52.880;6.016;2022-08-11T08:16:29;6.03;;;2.40;;
54883;SDS011;40776;52.880;6.016;2022-08-11T08:19:14;6.15;;;2.00;;
54883;SDS011;40776;52.880;6.016;2022-08-11T08:21:41;4.15;;;2.10;;
54883;SDS011;40776;52.880;6.016;2022-08-11T08:24:08;5.97;;;1.92;;
54883;SDS011;40776;52.880;6.016;2022-08-11T08:26:35;4.45;;;1.65;;
54883;SDS011;40776;52.880;6.016;2022-08-11T08:29:20;3.90;;;1.63;;
54883;SDS011;40776;52.880;6.016;2022-08-11T08:32:05;7.57;;;1.90;;
54883;SDS011;40776;52.880;6.016;2022-08-11T08:34:35;4.28;;;1.50;;
54883;SDS011;40776;52.880;6.016;2022-08-11T08:37:02;2.55;;;1.48;;
54883;SDS011;40776;52.880;6.016;2022-08-11T08:39:29;4.97;;;1.42;;
54883;SDS011;40776;52.880;6.016;2022-08-11T08:41:58;4.00;;;1.88;;
54883;SDS011;40776;52.880;6.016;2022-08-11T08:44:31;4.30;;;1.30;;
54883;SDS011;40776;52.880;6.016;2022-08-11T08:47:00;2.97;;;1.30;;
54883;SDS011;40776;52.880;6.016;2022-08-11T08:49:34;2.40;;;1.60;;
54883;SDS011;40776;52.880;6.016;2022-08-11T08:52:04;5.10;;;1.70;;
54883;SDS011;40776;52.880;6.016;2022-08-11T08:54:36;4.07;;;1.20;;
54883;SDS011;40776;52.880;6.016;2022-08-11T08:57:07;5.10;;;1.35;;
54883;SDS011;40776;52.880;6.016;2022-08-11T08:59:38;5.47;;;1.20;;
54883;SDS011;40776;52.880;6.016;2022-08-11T09:02:05;5.10;;;1.30;;
54883;SDS011;40776;52.880;6.016;2022-08-11T09:04:37;4.72;;;1.98;;
54883;SDS011;40776;52.880;6.016;2022-08-11T09:07:08;4.53;;;1.80;;
54883;SDS011;40776;52.880;6.016;2022-08-11T09:09:37;4.63;;;1.30;;
54883;SDS011;40776;52.880;6.016;2022-08-11T09:12:10;3.55;;;1.65;;
54883;SDS011;40776;52.880;6.016;2022-08-11T09:14:41;2.63;;;1.42;;
54883;SDS011;40776;52.880;6.016;2022-08-11T09:17:28;3.95;;;1.25;;
54883;SDS011;40776;52.880;6.016;2022-08-11T09:20:34;7.07;;;1.70;;
54883;SDS011;40776;52.880;6.016;2022-08-11T09:23:07;4.03;;;1.30;;
54883;SDS011;40776;52.880;6.016;2022-08-11T09:25:52;4.45;;;1.50;;
54883;SDS011;40776;52.880;6.016;2022-08-11T09:28:43;2.40;;;1.75;;
54883;SDS011;40776;52.880;6.016;2022-08-11T09:31:10;3.38;;;1.52;;
54883;SDS011;40776;52.880;6.016;2022-08-11T09:33:37;4.63;;;1.75;;
54883;SDS011;40776;52.880;6.016;2022-08-11T09:36:06;5.50;;;1.80;;
54883;SDS011;40776;52.880;6.016;2022-08-11T09:38:54;6.50;;;2.15;;
54883;SDS011;40776;52.880;6.016;2022-08-11T09:41:40;3.92;;;2.08;;
54883;SDS011;40776;52.880;6.016;2022-08-11T09:44:08;7.35;;;2.10;;
54883;SDS011;40776;52.880;6.016;2022-08-11T09:46:54;3.58;;;1.70;;
54883;SDS011;40776;52.880;6.016;2022-08-11T09:49:24;2.90;;;1.60;;
54883;SDS011;40776;52.880;6.016;2022-08-11T09:51:51;3.60;;;1.73;;
54883;SDS011;40776;52.880;6.016;2022-08-11T09:54:18;5.78;;;2.00;;
54883;SDS011;40776;52.880;6.016;2022-08-11T09:56:47;3.78;;;1.80;;
54883;SDS011;40776;52.880;6.016;2022-08-11T09:59:34;3.47;;;2.08;;
54883;SDS011;40776;52.880;6.016;2022-08-11T10:02:00;3.92;;;2.22;;
54883;SDS011;40776;52.880;6.016;2022-08-11T10:04:36;7.00;;;1.70;;
54883;SDS011;40776;52.880;6.016;2022-08-11T10:07:07;5.70;;;2.42;;
54883;SDS011;40776;52.880;6.016;2022-08-11T10:09:42;2.80;;;1.90;;
54883;SDS011;40776;52.880;6.016;2022-08-11T10:12:22;2.17;;;1.30;;
54883;SDS011;40776;52.880;6.016;2022-08-11T10:18:03;4.25;;;1.70;;
54883;SDS011;40776;52.880;6.016;2022-08-11T10:20:54;3.55;;;1.50;;
54883;SDS011;40776;52.880;6.016;2022-08-11T10:23:24;4.28;;;1.60;;
54883;SDS011;40776;52.880;6.016;2022-08-11T10:26:11;5.25;;;2.10;;
54883;SDS011;40776;52.880;6.016;2022-08-11T10:28:55;4.53;;;1.67;;
54883;SDS011;40776;52.880;6.016;2022-08-11T10:31:22;4.18;;;1.50;;
54883;SDS011;40776;52.880;6.016;2022-08-11T10:34:07;3.75;;;1.60;;
54883;SDS011;40776;52.880;6.016;2022-08-11T10:36:38;5.25;;;1.70;;
54883;SDS011;40776;52.880;6.016;2022-08-11T10:39:15;4.63;;;1.67;;
54883;SDS011;40776;52.880;6.016;2022-08-11T10:41:46;3.70;;;1.67;;
54883;SDS011;40776;52.880;6.016;2022-08-11T10:44:53;8.90;;;1.57;;
54883;SDS011;40776;52.880;6.016;2022-08-11T10:47:19;3.17;;;1.20;;
54883;SDS011;40776;52.880;6.016;2022-08-11T10:50:07;5.00;;;1.67;;
54883;SDS011;40776;52.880;6.016;2022-08-11T10:52:53;3.05;;;1.20;;
54883;SDS011;40776;52.880;6.016;2022-08-11T10:55:40;4.03;;;1.10;;
54883;SDS011;40776;52.880;6.016;2022-08-11T10:58:26;2.67;;;1.35;;
54883;SDS011;40776;52.880;6.016;2022-08-11T11:01:11;5.57;;;1.33;;
54883;SDS011;40776;52.880;6.016;2022-08-11T11:03:39;3.42;;;1.25;;
54883;SDS011;40776;52.880;6.016;2022-08-11T11:06:12;2.97;;;1.40;;
54883;SDS011;40776;52.880;6.016;2022-08-11T11:09:10;3.08;;;1.23;;
54883;SDS011;40776;52.880;6.016;2022-08-11T11:11:44;2.53;;;1.45;;
54883;SDS011;40776;52.880;6.016;2022-08-11T11:14:35;3.65;;;1.40;;
54883;SDS011;40776;52.880;6.016;2022-08-11T11:17:25;2.53;;;1.60;;
54883;SDS011;40776;52.880;6.016;2022-08-11T11:20:13;5.43;;;1.83;;
54883;SDS011;40776;52.880;6.016;2022-08-11T11:22:42;4.45;;;1.35;;
54883;SDS011;40776;52.880;6.016;2022-08-11T11:27:51;2.85;;;1.63;;
54883;SDS011;40776;52.880;6.016;2022-08-11T11:30:19;3.05;;;1.55;;
54883;SDS011;40776;52.880;6.016;2022-08-11T11:32:56;3.17;;;1.38;;
54883;SDS011;40776;52.880;6.016;2022-08-11T11:35:40;2.92;;;1.38;;
54883;SDS011;40776;52.880;6.016;2022-08-11T11:38:23;5.57;;;1.23;;
54883;SDS011;40776;52.880;6.016;2022-08-11T11:40:49;3.60;;;1.38;;
54883;SDS011;40776;52.880;6.016;2022-08-11T11:43:36;2.28;;;1.10;;
54883;SDS011;40776;52.880;6.016;2022-08-11T11:46:03;4.05;;;1.38;;
54883;SDS011;40776;52.880;6.016;2022-08-11T11:48:30;4.13;;;1.67;;
54883;SDS011;40776;52.880;6.016;2022-08-11T11:50:56;2.42;;;1.10;;
54883;SDS011;40776;52.880;6.016;2022-08-11T11:53:23;3.28;;;1.15;;
54883;SDS011;40776;52.880;6.016;2022-08-11T11:55:49;4.85;;;1.30;;
54883;SDS011;40776;52.880;6.016;2022-08-11T11:58:15;4.45;;;1.50;;
54883;SDS011;40776;52.880;6.016;2022-08-11T12:01:00;2.20;;;1.15;;
54883;SDS011;40776;52.880;6.016;2022-08-11T12:03:44;3.42;;;1.00;;
54883;SDS011;40776;52.880;6.016;2022-08-11T12:06:13;4.35;;;1.25;;
54883;SDS011;40776;52.880;6.016;2022-08-11T12:08:41;2.75;;;1.45;;
54883;SDS011;40776;52.880;6.016;2022-08-11T12:11:09;3.88;;;1.33;;
54883;SDS011;40776;52.880;6.016;2022-08-11T12:13:55;3.05;;;1.23;;
54883;SDS011;40776;52.880;6.016;2022-08-11T12:16:23;4.95;;;1.10;;
54883;SDS011;40776;52.880;6.016;2022-08-11T12:18:50;3.88;;;1.23;;
54883;SDS011;40776;52.880;6.016;2022-08-11T12:21:19;2.03;;;1.23;;
54883;SDS011;40776;52.880;6.016;2022-08-11T12:23:48;2.78;;;1.30;;
54883;SDS011;40776;52.880;6.016;2022-08-11T12:26:33;5.38;;;1.33;;
54883;SDS011;40776;52.880;6.016;2022-08-11T12:29:18;4.38;;;1.42;;
54883;SDS011;40776;52.880;6.016;2022-08-11T12:31:45;4.07;;;1.33;;
54883;SDS011;40776;52.880;6.016;2022-08-11T12:34:13;3.38;;;1.10;;
54883;SDS011;40776;52.880;6.016;2022-08-11T12:36:42;2.85;;;1.20;;
54883;SDS011;40776;52.880;6.016;2022-08-11T12:39:33;4.80;;;1.42;;
54883;SDS011;40776;52.880;6.016;2022-08-11T12:42:20;2.75;;;1.10;;
54883;SDS011;40776;52.880;6.016;2022-08-11T12:45:07;2.78;;;1.48;;
54883;SDS011;40776;52.880;6.016;2022-08-11T12:47:51;2.85;;;1.20;;
54883;SDS011;40776;52.880;6.016;2022-08-11T12:50:53;4.82;;;1.23;;
54883;SDS011;40776;52.880;6.016;2022-08-11T12:53:42;2.65;;;1.20;;
54883;SDS011;40776;52.880;6.016;2022-08-11T12:56:27;3.42;;;1.13;;
54883;SDS011;40776;52.880;6.016;2022-08-11T12:59:23;4.10;;;1.40;;
54883;SDS011;40776;52.880;6.016;2022-08-11T13:02:09;2.70;;;1.30;;
54883;SDS011;40776;52.880;6.016;2022-08-11T13:05:06;4.13;;;1.25;;
54883;SDS011;40776;52.880;6.016;2022-08-11T13:07:33;2.33;;;1.30;;
54883;SDS011;40776;52.880;6.016;2022-08-11T13:10:02;4.35;;;1.05;;
54883;SDS011;40776;52.880;6.016;2022-08-11T13:12:30;2.15;;;1.17;;
54883;SDS011;40776;52.880;6.016;2022-08-11T13:15:19;6.75;;;1.30;;
54883;SDS011;40776;52.880;6.016;2022-08-11T13:17:46;3.63;;;1.00;;
54883;SDS011;40776;52.880;6.016;2022-08-11T13:20:16;3.00;;;1.10;;
54883;SDS011;40776;52.880;6.016;2022-08-11T13:22:45;3.90;;;1.23;;
54883;SDS011;40776;52.880;6.016;2022-08-11T13:27:43;2.83;;;1.00;;
54883;SDS011;40776;52.880;6.016;2022-08-11T13:30:14;3.55;;;1.50;;
54883;SDS011;40776;52.880;6.016;2022-08-11T13:32:59;3.28;;;1.20;;
54883;SDS011;40776;52.880;6.016;2022-08-11T13:35:27;2.28;;;1.17;;
54883;SDS011;40776;52.880;6.016;2022-08-11T13:37:57;1.60;;;0.95;;
54883;SDS011;40776;52.880;6.016;2022-08-11T13:40:25;2.90;;;1.13;;
54883;SDS011;40776;52.880;6.016;2022-08-11T13:42:53;2.10;;;1.10;;
54883;SDS011;40776;52.880;6.016;2022-08-11T13:45:21;3.72;;;1.17;;
54883;SDS011;40776;52.880;6.016;2022-08-11T13:47:47;3.43;;;1.20;;
54883;SDS011;40776;52.880;6.016;2022-08-11T13:50:15;3.15;;;0.93;;
54883;SDS011;40776;52.880;6.016;2022-08-11T13:52:45;3.90;;;1.20;;
54883;SDS011;40776;52.880;6.016;2022-08-11T13:55:13;2.50;;;1.30;;
54883;SDS011;40776;52.880;6.016;2022-08-11T13:57:55;2.72;;;1.20;;
54883;SDS011;40776;52.880;6.016;2022-08-11T14:00:21;3.58;;;1.00;;
54883;SDS011;40776;52.880;6.016;2022-08-11T14:02:50;2.00;;;1.30;;
54883;SDS011;40776;52.880;6.016;2022-08-11T14:05:19;2.78;;;1.02;;
54883;SDS011;40776;52.880;6.016;2022-08-11T14:08:00;2.13;;;1.25;;
54883;SDS011;40776;52.880;6.016;2022-08-11T14:10:30;2.67;;;1.20;;
54883;SDS011;40776;52.880;6.016;2022-08-11T14:12:59;2.63;;;1.58;;
54883;SDS011;40776;52.880;6.016;2022-08-11T14:15:49;3.03;;;1.10;;
54883;SDS011;40776;52.880;6.016;2022-08-11T14:18:21;5.68;;;1.38;;
54883;SDS011;40776;52.880;6.016;2022-08-11T14:20:53;4.30;;;1.15;;
54883;SDS011;40776;52.880;6.016;2022-08-11T14:23:41;4.20;;;1.13;;
54883;SDS011;40776;52.880;6.016;2022-08-11T14:26:15;4.20;;;2.05;;
54883;SDS011;40776;52.880;6.016;2022-08-11T14:28:48;4.60;;;1.30;;
54883;SDS011;40776;52.880;6.016;2022-08-11T14:31:20;2.97;;;1.23;;
54883;SDS011;40776;52.880;6.016;2022-08-11T14:33:49;2.05;;;0.98;;
54883;SDS011;40776;52.880;6.016;2022-08-11T14:36:18;5.17;;;1.13;;
54883;SDS011;40776;52.880;6.016;2022-08-11T14:38:47;4.07;;;1.40;;
54883;SDS011;40776;52.880;6.016;2022-08-11T14:41:14;3.22;;;1.17;;
54883;SDS011;40776;52.880;6.016;2022-08-11T14:44:00;3.92;;;1.13;;
54883;SDS011;40776;52.880;6.016;2022-08-11T14:46:46;2.95;;;0.93;;
54883;SDS011;40776;52.880;6.016;2022-08-11T14:49:35;2.15;;;1.20;;
54883;SDS011;40776;52.880;6.016;2022-08-11T14:52:11;2.40;;;1.10;;
54883;SDS011;40776;52.880;6.016;2022-08-11T14:54:41;1.88;;;1.00;;
54883;SDS011;40776;52.880;6.016;2022-08-11T14:57:26;2.00;;;0.95;;
54883;SDS011;40776;52.880;6.016;2022-08-11T14:59:55;3.75;;;1.05;;
54883;SDS011;40776;52.880;6.016;2022-08-11T15:02:25;7.28;;;1.10;;
54883;SDS011;40776;52.880;6.016;2022-08-11T15:05:10;4.25;;;1.15;;
54883;SDS011;40776;52.880;6.016;2022-08-11T15:07:36;3.63;;;1.30;;
54883;SDS011;40776;52.880;6.016;2022-08-11T15:10:04;3.85;;;1.30;;
54883;SDS011;40776;52.880;6.016;2022-08-11T15:12:32;2.10;;;1.10;;
54883;SDS011;40776;52.880;6.016;2022-08-11T15:15:00;2.00;;;1.10;;
54883;SDS011;40776;52.880;6.016;2022-08-11T15:17:47;2.55;;;1.00;;
54883;SDS011;40776;52.880;6.016;2022-08-11T15:20:16;1.73;;;1.08;;
54883;SDS011;40776;52.880;6.016;2022-08-11T15:23:02;2.53;;;1.20;;
54883;SDS011;40776;52.880;6.016;2022-08-11T15:26:03;2.40;;;1.02;;
54883;SDS011;40776;52.880;6.016;2022-08-11T15:28:36;3.13;;;0.90;;
54883;SDS011;40776;52.880;6.016;2022-08-11T15:31:23;4.28;;;1.10;;
54883;SDS011;40776;52.880;6.016;2022-08-11T15:33:58;2.38;;;1.08;;
54883;SDS011;40776;52.880;6.016;2022-08-11T15:36:48;3.63;;;1.10;;
54883;SDS011;40776;52.880;6.016;2022-08-11T15:39:40;4.13;;;0.95;;
54883;SDS011;40776;52.880;6.016;2022-08-11T15:42:33;2.38;;;0.82;;
54883;SDS011;40776;52.880;6.016;2022-08-11T15:45:31;4.10;;;1.17;;
54883;SDS011;40776;52.880;6.016;2022-08-11T15:48:15;3.95;;;1.27;;
54883;SDS011;40776;52.880;6.016;2022-08-11T15:50:47;8.95;;;1.00;;
54883;SDS011;40776;52.880;6.016;2022-08-11T15:53:17;2.28;;;0.95;;
54883;SDS011;40776;52.880;6.016;2022-08-11T15:56:04;3.77;;;1.10;;
54883;SDS011;40776;52.880;6.016;2022-08-11T15:58:33;2.22;;;1.10;;
54883;SDS011;40776;52.880;6.016;2022-08-11T16:01:29;4.93;;;1.10;;
54883;SDS011;40776;52.880;6.016;2022-08-11T16:04:18;3.42;;;1.10;;
54883;SDS011;40776;52.880;6.016;2022-08-11T16:09:21;5.82;;;1.40;;
54883;SDS011;40776;52.880;6.016;2022-08-11T16:12:10;3.58;;;0.90;;
54883;SDS011;40776;52.880;6.016;2022-08-11T16:14:43;2.92;;;1.17;;
54883;SDS011;40776;52.880;6.016;2022-08-11T16:17:31;2.40;;;1.10;;
54883;SDS011;40776;52.880;6.016;2022-08-11T16:20:21;2.03;;;1.00;;
54883;SDS011;40776;52.880;6.016;2022-08-11T16:22:50;3.08;;;1.05;;
54883;SDS011;40776;52.880;6.016;2022-08-11T16:25:19;2.33;;;1.30;;
54883;SDS011;40776;52.880;6.016;2022-08-11T16:30:27;5.07;;;1.25;;
54883;SDS011;40776;52.880;6.016;2022-08-11T16:32:54;4.05;;;1.50;;
54883;SDS011;40776;52.880;6.016;2022-08-11T16:35:23;5.55;;;1.00;;
54883;SDS011;40776;52.880;6.016;2022-08-11T16:38:09;1.98;;;0.98;;
54883;SDS011;40776;52.880;6.016;2022-08-11T16:40:55;4.63;;;1.23;;
54883;SDS011;40776;52.880;6.016;2022-08-11T16:43:27;3.40;;;1.10;;
54883;SDS011;40776;52.880;6.016;2022-08-11T16:46:14;1.50;;;1.00;;
54883;SDS011;40776;52.880;6.016;2022-08-11T16:49:01;2.73;;;1.60;;
54883;SDS011;40776;52.880;6.016;2022-08-11T16:51:34;8.70;;;1.33;;
54883;SDS011;40776;52.880;6.016;2022-08-11T16:54:01;4.13;;;1.10;;
54883;SDS011;40776;52.880;6.016;2022-08-11T16:56:41;5.50;;;0.98;;
54883;SDS011;40776;52.880;6.016;2022-08-11T16:59:30;4.80;;;1.23;;
54883;SDS011;40776;52.880;6.016;2022-08-11T17:02:09;4.75;;;1.30;;
54883;SDS011;40776;52.880;6.016;2022-08-11T17:04:59;2.42;;;1.10;;
54883;SDS011;40776;52.880;6.016;2022-08-11T17:07:48;4.28;;;1.13;;
54883;SDS011;40776;52.880;6.016;2022-08-11T17:14:00;3.83;;;1.30;;
54883;SDS011;40776;52.880;6.016;2022-08-11T17:16:32;4.03;;;1.37;;
54883;SDS011;40776;52.880;6.016;2022-08-11T17:19:04;1.83;;;1.10;;
54883;SDS011;40776;52.880;6.016;2022-08-11T17:21:41;4.10;;;1.33;;
54883;SDS011;40776;52.880;6.016;2022-08-11T17:24:32;4.78;;;1.50;;
54883;SDS011;40776;52.880;6.016;2022-08-11T17:27:02;4.90;;;1.42;;
54883;SDS011;40776;52.880;6.016;2022-08-11T17:32:34;4.15;;;1.40;;
54883;SDS011;40776;52.880;6.016;2022-08-11T17:35:22;7.70;;;1.25;;
54883;SDS011;40776;52.880;6.016;2022-08-11T17:40:34;3.13;;;1.20;;
54883;SDS011;40776;52.880;6.016;2022-08-11T17:43:03;4.55;;;1.13;;
54883;SDS011;40776;52.880;6.016;2022-08-11T17:45:51;3.90;;;1.40;;
54883;SDS011;40776;52.880;6.016;2022-08-11T17:48:37;2.35;;;1.30;;
54883;SDS011;40776;52.880;6.016;2022-08-11T17:51:06;3.25;;;1.30;;
54883;SDS011;40776;52.880;6.016;2022-08-11T17:53:57;4.15;;;1.17;;
54883;SDS011;40776;52.880;6.016;2022-08-11T17:56:43;3.20;;;1.30;;
54883;SDS011;40776;52.880;6.016;2022-08-11T17:59:29;4.38;;;1.48;;
54883;SDS011;40776;52.880;6.016;2022-08-11T18:02:15;4.43;;;1.40;;
54883;SDS011;40776;52.880;6.016;2022-08-11T18:05:04;4.03;;;1.48;;
54883;SDS011;40776;52.880;6.016;2022-08-11T18:07:30;3.78;;;1.40;;
54883;SDS011;40776;52.880;6.016;2022-08-11T18:10:16;4.43;;;1.23;;
54883;SDS011;40776;52.880;6.016;2022-08-11T18:13:02;4.47;;;1.30;;
54883;SDS011;40776;52.880;6.016;2022-08-11T18:15:48;6.13;;;2.00;;
54883;SDS011;40776;52.880;6.016;2022-08-11T18:18:33;11.75;;;1.40;;
54883;SDS011;40776;52.880;6.016;2022-08-11T18:21:18;8.63;;;1.55;;
54883;SDS011;40776;52.880;6.016;2022-08-11T18:24:09;3.25;;;1.42;;
54883;SDS011;40776;52.880;6.016;2022-08-11T18:26:56;5.93;;;2.22;;
54883;SDS011;40776;52.880;6.016;2022-08-11T18:29:44;6.30;;;1.45;;
54883;SDS011;40776;52.880;6.016;2022-08-11T18:32:33;3.30;;;1.48;;
54883;SDS011;40776;52.880;6.016;2022-08-11T18:35:18;3.97;;;1.40;;
54883;SDS011;40776;52.880;6.016;2022-08-11T18:38:05;4.45;;;1.40;;
54883;SDS011;40776;52.880;6.016;2022-08-11T18:40:53;4.50;;;1.67;;
54883;SDS011;40776;52.880;6.016;2022-08-11T18:43:40;7.32;;;1.42;;
54883;SDS011;40776;52.880;6.016;2022-08-11T18:46:26;2.95;;;1.55;;
54883;SDS011;40776;52.880;6.016;2022-08-11T18:49:17;4.95;;;1.58;;
54883;SDS011;40776;52.880;6.016;2022-08-11T18:52:12;5.95;;;1.60;;
54883;SDS011;40776;52.880;6.016;2022-08-11T18:54:58;3.28;;;1.10;;
54883;SDS011;40776;52.880;6.016;2022-08-11T18:57:45;5.30;;;1.80;;
54883;SDS011;40776;52.880;6.016;2022-08-11T19:00:31;4.25;;;1.45;;
54883;SDS011;40776;52.880;6.016;2022-08-11T19:03:17;2.88;;;1.65;;
54883;SDS011;40776;52.880;6.016;2022-08-11T19:06:04;3.97;;;1.60;;
54883;SDS011;40776;52.880;6.016;2022-08-11T19:08:53;4.97;;;1.70;;
54883;SDS011;40776;52.880;6.016;2022-08-11T19:11:40;3.60;;;1.58;;
54883;SDS011;40776;52.880;6.016;2022-08-11T19:14:27;4.75;;;1.42;;
54883;SDS011;40776;52.880;6.016;2022-08-11T19:17:14;11.27;;;1.63;;
54883;SDS011;40776;52.880;6.016;2022-08-11T19:20:03;5.43;;;1.80;;